createdAt,value
2023-01-19T00:02:05.959Z,76.00
2023-01-19T00:05:11.657Z,82.75
2023-01-19T00:08:18.788Z,88.75
2023-01-19T00:11:24.511Z,119.67
2023-01-19T00:14:28.434Z,114.33
2023-01-19T00:17:32.736Z,99.50
2023-01-19T00:20:36.540Z,99.50
2023-01-19T00:23:42.090Z,94.50
2023-01-19T00:26:47.859Z,86.25
2023-01-19T00:29:51.689Z,84.75
2023-01-19T00:32:55.177Z,97.50
2023-01-19T00:35:59.105Z,97.50
2023-01-19T00:39:03.117Z,93.25
2023-01-19T00:42:25.624Z,96.25
2023-01-19T00:45:29.120Z,121.33
2023-01-19T00:48:33.652Z,100.00
2023-01-19T00:51:37.667Z,120.33
2023-01-19T00:54:41.759Z,33.00
2023-01-19T00:57:46.860Z,2.25
2023-01-19T01:00:50.655Z,7.00
2023-01-19T01:03:54.367Z,1.75
2023-01-19T01:06:58.242Z,10.75
2023-01-19T01:10:01.832Z,6.25
2023-01-19T01:13:21.176Z,1.00
2023-01-19T01:16:27.896Z,4.75
2023-01-19T01:19:31.893Z,3.00
2023-01-19T01:22:35.421Z,11.25
2023-01-19T01:25:46.043Z,2.25
2023-01-19T01:28:51.875Z,6.25
2023-01-19T01:31:56.946Z,12.00
2023-01-19T01:35:00.674Z,2.00
2023-01-19T01:38:05.436Z,10.75
2023-01-19T01:41:10.623Z,4.25
2023-01-19T01:44:51.009Z,21.00
2023-01-19T01:47:58.667Z,4.00
2023-01-19T01:51:25.908Z,6.00
2023-01-19T01:54:33.160Z,9.75
2023-01-19T01:57:40.490Z,3.75
2023-01-19T02:01:03.612Z,2.25
2023-01-19T02:04:07.626Z,6.75
2023-01-19T02:07:31.329Z,10.00
2023-01-19T02:10:54.525Z,13.50
2023-01-19T02:13:59.585Z,20.75
2023-01-19T02:17:05.516Z,25.75
2023-01-19T02:20:10.857Z,8.50
2023-01-19T02:23:25.620Z,9.00
2023-01-19T02:26:35.211Z,12.00
2023-01-19T02:29:40.109Z,6.75
2023-01-19T02:32:44.452Z,10.50
2023-01-19T02:35:50.518Z,11.00
2023-01-19T02:38:57.251Z,6.50
2023-01-19T02:42:05.372Z,16.50
2023-01-19T02:45:12.878Z,9.25
2023-01-19T02:48:18.137Z,7.25
2023-01-19T02:51:25.697Z,8.00
2023-01-19T02:54:54.380Z,7.25
2023-01-19T02:58:08.039Z,4.00
2023-01-19T03:01:18.599Z,8.50
2023-01-19T03:04:30.038Z,7.00
2023-01-19T03:07:46.223Z,7.00
2023-01-19T03:10:57.920Z,9.00
2023-01-19T03:14:09.965Z,9.25
2023-01-19T03:17:16.239Z,13.25
2023-01-19T03:20:25.775Z,12.25
2023-01-19T03:23:33.632Z,8.00
2023-01-19T03:26:44.118Z,2.00
2023-01-19T03:29:55.207Z,8.75
2023-01-19T03:33:05.202Z,9.00
2023-01-19T03:36:15.172Z,7.00
2023-01-19T03:39:23.886Z,0.50
2023-01-19T03:42:29.542Z,0.00
2023-01-19T03:45:39.736Z,0.00
2023-01-19T03:48:44.007Z,1.00
2023-01-19T03:51:48.413Z,1.00
2023-01-19T03:54:51.877Z,0.00
2023-01-19T03:57:56.066Z,1.00
2023-01-19T04:01:01.025Z,0.75
2023-01-19T04:04:05.220Z,0.00
2023-01-19T04:07:11.220Z,0.00
2023-01-19T04:10:16.123Z,0.00
2023-01-19T04:13:19.648Z,0.00
2023-01-19T04:16:25.431Z,0.00
2023-01-19T04:19:29.063Z,0.00
2023-01-19T04:22:32.977Z,0.00
2023-01-19T04:25:38.927Z,0.00
2023-01-19T04:28:43.181Z,0.00
2023-01-19T04:31:48.256Z,0.00
2023-01-19T04:34:52.426Z,0.00
2023-01-19T04:37:56.040Z,0.00
2023-01-19T04:41:00.296Z,0.00
2023-01-19T04:44:04.066Z,2.00
2023-01-19T04:47:29.873Z,0.00
2023-01-19T04:50:34.774Z,0.00
2023-01-19T04:53:38.972Z,1.00
2023-01-19T04:56:42.697Z,2.00
2023-01-19T04:59:47.271Z,0.00
2023-01-19T05:02:52.554Z,4.50
2023-01-19T05:05:56.971Z,1.25
2023-01-19T05:09:00.542Z,0.25
2023-01-19T05:12:04.802Z,2.00
2023-01-19T05:15:09.836Z,0.00
2023-01-19T05:18:15.307Z,0.00
2023-01-19T05:21:19.291Z,0.00
2023-01-19T05:24:25.569Z,3.00
2023-01-19T05:27:29.541Z,2.25
2023-01-19T05:30:34.115Z,7.50
2023-01-19T05:33:39.183Z,6.00
2023-01-19T05:36:44.791Z,5.50
2023-01-19T05:39:48.343Z,2.50
2023-01-19T05:42:53.353Z,2.25
2023-01-19T05:45:57.100Z,2.25
2023-01-19T05:49:04.409Z,3.00
2023-01-19T05:52:08.222Z,5.50
2023-01-19T05:55:12.436Z,8.25
2023-01-19T05:58:16.115Z,39.00
2023-01-19T06:01:20.122Z,71.25
2023-01-19T06:04:25.581Z,24.00
2023-01-19T06:07:29.826Z,50.25
2023-01-19T06:10:33.648Z,29.25
2023-01-19T06:13:37.394Z,34.00
2023-01-19T06:16:41.137Z,36.00
2023-01-19T06:19:46.791Z,29.50
2023-01-19T06:22:50.487Z,46.00
2023-01-19T06:25:54.750Z,45.50
2023-01-19T06:28:58.302Z,71.50
2023-01-19T06:32:02.337Z,45.25
2023-01-19T06:35:08.439Z,37.75
2023-01-19T06:38:13.819Z,31.50
2023-01-19T06:41:17.540Z,28.25
2023-01-19T06:44:21.898Z,30.25
2023-01-19T06:47:25.917Z,145.00
2023-01-19T06:50:31.604Z,87.25
2023-01-19T06:53:35.198Z,67.00
2023-01-19T06:56:39.699Z,85.25
2023-01-19T06:59:44.627Z,67.75
2023-01-19T07:02:49.678Z,27.00
2023-01-19T07:05:56.914Z,76.00
2023-01-19T07:09:04.802Z,195.00
2023-01-19T07:12:09.514Z,91.25
2023-01-19T07:15:14.852Z,84.00
2023-01-19T07:18:18.548Z,71.75
2023-01-19T07:21:28.252Z,66.75
2023-01-19T07:24:33.721Z,75.75
2023-01-19T07:27:37.768Z,78.00
2023-01-19T07:30:41.583Z,74.50
2023-01-19T07:33:46.099Z,69.50
2023-01-19T07:36:51.077Z,19.75
2023-01-19T07:39:54.792Z,40.75
2023-01-19T07:42:58.972Z,50.25
2023-01-19T07:46:05.428Z,50.50
2023-01-19T07:49:09.557Z,24.00
2023-01-19T07:52:14.774Z,23.75
2023-01-19T07:55:18.548Z,17.50
2023-01-19T07:58:22.255Z,73.00
2023-01-19T08:01:25.813Z,81.00
2023-01-19T08:04:29.755Z,75.00
2023-01-19T08:07:35.717Z,56.25
2023-01-19T08:10:39.904Z,35.50
2023-01-19T08:13:45.183Z,29.25
2023-01-19T08:16:49.910Z,57.75
2023-01-19T08:19:54.561Z,92.00
2023-01-19T08:23:01.622Z,57.00
2023-01-19T08:26:19.658Z,33.25
2023-01-19T08:29:26.241Z,33.00
2023-01-19T08:32:30.133Z,30.75
2023-01-19T08:35:36.096Z,21.75
2023-01-19T08:38:44.769Z,35.25
2023-01-19T08:41:48.699Z,27.50
2023-01-19T08:44:58.191Z,9.00
2023-01-19T08:48:02.992Z,13.75
2023-01-19T08:51:06.910Z,11.00
2023-01-19T08:54:12.130Z,13.50
2023-01-19T08:57:16.280Z,8.25
2023-01-19T09:00:22.591Z,7.75
2023-01-19T09:03:26.488Z,13.75
2023-01-19T09:06:30.505Z,4.50
2023-01-19T09:09:37.945Z,8.25
2023-01-19T09:12:42.154Z,13.00
2023-01-19T09:15:46.536Z,15.50
2023-01-19T09:18:50.568Z,7.50
2023-01-19T09:21:55.388Z,14.50
2023-01-19T09:25:19.509Z,6.75
2023-01-19T09:28:23.565Z,6.50
2023-01-19T09:31:27.730Z,13.75
2023-01-19T09:34:31.521Z,13.00
2023-01-19T09:37:35.549Z,31.75
2023-01-19T09:40:45.234Z,55.00
2023-01-19T09:43:52.783Z,57.75
2023-01-19T09:46:56.242Z,34.25
2023-01-19T09:50:04.582Z,40.25
2023-01-19T09:53:17.612Z,43.00
2023-01-19T09:56:24.212Z,28.25
2023-01-19T09:59:30.904Z,19.00
2023-01-19T10:06:44.591Z,14.50
2023-01-19T10:10:10.456Z,32.50
2023-01-19T10:13:30.391Z,9.50
2023-01-19T10:16:45.473Z,15.00
2023-01-19T10:19:56.226Z,21.75
2023-01-19T10:23:02.240Z,17.50
2023-01-19T10:26:10.982Z,7.00
2023-01-19T10:29:23.240Z,10.00
2023-01-19T10:32:30.511Z,8.75
2023-01-19T10:35:35.840Z,9.25
2023-01-19T10:38:39.800Z,7.75
2023-01-19T10:41:46.725Z,10.75
2023-01-19T10:44:51.910Z,18.25
2023-01-19T10:47:58.761Z,8.00
2023-01-19T10:51:03.607Z,14.50
2023-01-19T10:54:14.318Z,10.25
2023-01-19T10:57:27.786Z,4.00
2023-01-19T11:00:40.275Z,4.00
2023-01-19T11:03:45.690Z,4.75
2023-01-19T11:06:50.049Z,6.00
2023-01-19T11:10:14.886Z,7.00
2023-01-19T11:13:18.986Z,3.50
2023-01-19T11:16:28.683Z,14.00
2023-01-19T11:19:34.522Z,12.50
2023-01-19T11:22:39.261Z,9.00
2023-01-19T11:25:47.797Z,9.50
2023-01-19T11:28:54.766Z,8.50
2023-01-19T11:32:12.970Z,9.00
2023-01-19T11:35:36.860Z,7.00
2023-01-19T11:38:44.952Z,4.00
2023-01-19T11:41:52.621Z,6.50
2023-01-19T11:45:12.782Z,19.75
2023-01-19T11:48:27.909Z,10.00
2023-01-19T11:51:39.038Z,7.00
2023-01-19T11:54:50.879Z,21.50
2023-01-19T11:57:56.480Z,13.75
2023-01-19T12:01:06.655Z,10.75
2023-01-19T12:04:17.394Z,31.50
2023-01-19T12:07:27.185Z,12.50
2023-01-19T12:10:36.326Z,28.75
2023-01-19T12:13:44.295Z,5.50
2023-01-19T12:16:49.279Z,14.00
2023-01-19T12:20:02.623Z,7.50
2023-01-19T12:23:25.007Z,17.00
2023-01-19T12:26:38.742Z,28.50
2023-01-19T12:29:43.997Z,8.00
2023-01-19T12:32:48.084Z,13.75
2023-01-19T12:35:59.974Z,8.00
2023-01-19T12:39:05.576Z,16.25
2023-01-19T12:42:15.935Z,16.75
2023-01-19T12:45:25.773Z,16.25
2023-01-19T12:48:33.207Z,12.00
2023-01-19T12:51:39.478Z,11.00
2023-01-19T12:54:51.894Z,16.50
2023-01-19T12:58:00.840Z,9.00
2023-01-19T13:01:16.702Z,8.25
2023-01-19T13:04:32.156Z,15.25
2023-01-19T13:08:09.454Z,4.00
2023-01-19T13:11:19.816Z,8.00
2023-01-19T13:14:43.128Z,8.75
2023-01-19T13:17:52.275Z,9.25
2023-01-19T13:21:01.705Z,18.25
2023-01-19T13:24:07.185Z,13.50
2023-01-19T13:27:14.341Z,15.25
2023-01-19T13:30:20.842Z,18.75
2023-01-19T13:33:27.995Z,19.50
2023-01-19T13:36:34.273Z,12.00
2023-01-19T13:39:41.518Z,17.50
2023-01-19T13:42:49.087Z,26.00
2023-01-19T13:45:53.716Z,25.25
2023-01-19T13:48:59.981Z,18.00
2023-01-19T13:52:15.094Z,37.75
2023-01-19T13:55:20.610Z,33.75
2023-01-19T13:58:28.058Z,5.25
2023-01-19T14:01:33.150Z,40.00
2023-01-19T14:04:37.269Z,30.25
2023-01-19T14:07:40.756Z,12.00
2023-01-19T14:10:48.450Z,2.00
2023-01-19T14:13:53.248Z,13.50
2023-01-19T14:16:59.543Z,11.25
2023-01-19T14:20:04.865Z,14.25
2023-01-19T14:23:39.002Z,14.50
2023-01-19T14:26:46.558Z,12.50
2023-01-19T14:29:54.950Z,3.25
2023-01-19T14:32:58.563Z,16.00
2023-01-19T14:36:11.198Z,19.00
2023-01-19T14:39:23.354Z,20.00
2023-01-19T14:42:31.438Z,19.50
2023-01-19T14:45:39.322Z,29.25
2023-01-19T14:48:48.289Z,20.25
2023-01-19T14:51:52.815Z,16.00
2023-01-19T14:54:58.787Z,23.50
2023-01-19T14:58:03.690Z,41.00
2023-01-19T15:01:10.268Z,36.00
2023-01-19T15:04:13.869Z,33.00
2023-01-19T15:07:21.115Z,44.50
2023-01-19T15:10:26.215Z,47.25
2023-01-19T15:13:30.383Z,11.25
2023-01-19T15:16:36.171Z,101.25
2023-01-19T15:19:40.729Z,51.75
2023-01-19T15:22:46.707Z,84.25
2023-01-19T15:25:51.664Z,76.25
2023-01-19T15:28:57.373Z,62.50
2023-01-19T15:32:03.944Z,132.67
2023-01-19T15:35:17.023Z,85.50
2023-01-19T15:38:21.047Z,81.50
2023-01-19T15:41:27.705Z,75.50
2023-01-19T15:44:34.120Z,72.00
2023-01-19T15:47:39.666Z,60.00
2023-01-19T15:50:45.047Z,62.25
2023-01-19T15:53:49.279Z,82.00
2023-01-19T15:56:53.276Z,79.25
2023-01-19T15:59:56.939Z,96.25
2023-01-19T16:03:03.972Z,107.67
2023-01-19T16:06:07.989Z,85.25
2023-01-19T16:09:16.765Z,96.25
2023-01-19T16:12:20.315Z,73.75
2023-01-19T16:15:25.527Z,52.25
2023-01-19T16:18:30.643Z,45.00
2023-01-19T16:21:34.388Z,64.50
2023-01-19T16:24:37.850Z,64.50
2023-01-19T16:27:41.553Z,61.25
2023-01-19T16:30:45.176Z,68.50
2023-01-19T16:33:50.589Z,67.75
2023-01-19T16:36:54.292Z,72.50
2023-01-19T16:39:58.295Z,58.25
2023-01-19T16:43:01.706Z,40.00
2023-01-19T16:46:05.719Z,44.50
2023-01-19T16:49:14.345Z,40.00
2023-01-19T16:52:19.328Z,67.25
2023-01-19T16:55:22.920Z,73.00
2023-01-19T16:58:27.316Z,56.25
2023-01-19T17:01:31.010Z,75.50
2023-01-19T17:04:37.378Z,57.25
2023-01-19T17:07:41.724Z,48.75
2023-01-19T17:10:45.765Z,34.25
2023-01-19T17:13:51.266Z,27.75
2023-01-19T17:16:55.099Z,38.00
2023-01-19T17:20:00.320Z,30.75
2023-01-19T17:23:04.158Z,95.00
2023-01-19T17:26:10.595Z,48.00
2023-01-19T17:29:14.620Z,59.25
2023-01-19T17:32:18.067Z,65.00
2023-01-19T17:35:23.358Z,59.25
2023-01-19T17:38:26.802Z,52.00
2023-01-19T17:41:32.179Z,67.00
2023-01-19T17:44:36.021Z,75.75
2023-01-19T17:47:40.265Z,63.00
2023-01-19T17:50:45.704Z,51.00
2023-01-19T17:53:49.857Z,40.50
2023-01-19T17:56:53.560Z,66.50
2023-01-19T18:00:15.248Z,37.00
2023-01-19T18:03:19.035Z,49.50
2023-01-19T18:06:24.505Z,51.75
2023-01-19T18:09:28.060Z,27.50
2023-01-19T18:12:32.170Z,34.50
2023-01-19T18:15:35.701Z,27.25
2023-01-19T18:18:40.569Z,53.50
2023-01-19T18:21:45.455Z,47.25
2023-01-19T18:24:49.300Z,38.00
2023-01-19T18:27:52.728Z,53.75
2023-01-19T18:30:56.772Z,32.50
2023-01-19T18:34:00.855Z,24.25
2023-01-19T18:37:06.103Z,28.00
2023-01-19T18:40:11.339Z,65.75
2023-01-19T18:43:15.321Z,35.25
2023-01-19T18:46:18.935Z,59.50
2023-01-19T18:49:22.689Z,45.25
2023-01-19T18:52:27.520Z,45.25
2023-01-19T18:55:31.256Z,45.25
2023-01-19T18:58:37.439Z,33.50
2023-01-19T19:01:42.191Z,37.50
2023-01-19T19:04:45.848Z,76.25
2023-01-19T19:07:52.268Z,61.25
2023-01-19T19:10:55.790Z,63.00
2023-01-19T19:14:02.068Z,34.50
2023-01-19T19:17:05.620Z,70.25
2023-01-19T19:20:10.980Z,53.75
2023-01-19T19:23:16.097Z,43.00
2023-01-19T19:26:20.718Z,36.00
2023-01-19T19:29:25.081Z,42.25
2023-01-19T19:32:31.036Z,42.25
2023-01-19T19:35:35.752Z,60.25
2023-01-19T19:38:42.934Z,47.50
2023-01-19T19:41:46.512Z,26.25
2023-01-19T19:44:52.415Z,71.50
2023-01-19T19:47:55.879Z,82.25
2023-01-19T19:51:17.590Z,49.50
2023-01-19T19:54:23.612Z,48.25
2023-01-19T19:57:27.707Z,52.25
2023-01-19T20:00:31.445Z,57.25
2023-01-19T20:03:37.860Z,28.25
2023-01-19T20:06:44.825Z,31.50
2023-01-19T20:09:51.168Z,76.25
2023-01-19T20:12:54.663Z,41.50
2023-01-19T20:15:58.396Z,58.25
2023-01-19T20:19:02.172Z,54.50
2023-01-19T20:22:06.048Z,26.00
2023-01-19T20:25:12.668Z,19.75
2023-01-19T20:28:16.883Z,29.75
2023-01-19T20:31:23.565Z,67.75
2023-01-19T20:34:32.069Z,27.00
2023-01-19T20:37:36.406Z,34.25
2023-01-19T20:40:41.897Z,35.50
2023-01-19T20:43:46.442Z,40.50
2023-01-19T20:46:51.597Z,34.00
2023-01-19T20:49:55.158Z,28.50
2023-01-19T20:52:58.832Z,20.75
2023-01-19T20:56:06.290Z,28.25
2023-01-19T20:59:10.564Z,26.00
2023-01-19T21:02:16.845Z,30.50
2023-01-19T21:05:21.566Z,34.00
2023-01-19T21:08:25.239Z,33.25
2023-01-19T21:11:30.475Z,29.00
2023-01-19T21:14:34.177Z,37.50
2023-01-19T21:17:38.056Z,24.25
2023-01-19T21:20:42.061Z,20.25
2023-01-19T21:23:46.962Z,19.50
2023-01-19T21:26:51.855Z,18.25
2023-01-19T21:29:55.689Z,19.00
2023-01-19T21:32:59.167Z,18.50
2023-01-19T21:36:03.470Z,17.25
2023-01-19T21:39:08.240Z,10.00
2023-01-19T21:42:14.102Z,12.25
2023-01-19T21:45:17.764Z,12.00
2023-01-19T21:48:21.869Z,17.00
2023-01-19T21:51:25.761Z,15.50
2023-01-19T21:54:29.706Z,12.50
2023-01-19T21:57:34.481Z,13.00
2023-01-19T22:00:38.220Z,16.00
2023-01-19T22:03:42.617Z,16.00
2023-01-19T22:06:46.909Z,19.00
2023-01-19T22:09:51.884Z,17.25
2023-01-19T22:12:57.439Z,17.00
2023-01-19T22:16:01.893Z,19.00
2023-01-19T22:19:07.835Z,19.50
2023-01-19T22:22:11.400Z,20.75
2023-01-19T22:25:15.769Z,19.75
2023-01-19T22:28:20.607Z,17.00
2023-01-19T22:31:25.652Z,29.50
2023-01-19T22:34:29.266Z,14.50
2023-01-19T22:37:36.265Z,14.00
2023-01-19T22:40:39.960Z,14.75
2023-01-19T22:43:47.367Z,21.50
2023-01-19T22:46:53.702Z,12.75
2023-01-19T22:49:57.660Z,70.50
2023-01-19T22:53:01.181Z,65.50
2023-01-19T22:56:12.939Z,49.75
2023-01-19T22:59:18.106Z,6.00
2023-01-19T23:02:21.976Z,5.75
2023-01-19T23:05:25.995Z,34.50
2023-01-19T23:08:30.103Z,8.25
2023-01-19T23:11:36.157Z,38.00
2023-01-19T23:14:41.595Z,21.75
2023-01-19T23:17:49.004Z,22.75
2023-01-19T23:20:52.921Z,17.50
2023-01-19T23:23:57.272Z,15.50
2023-01-19T23:27:02.414Z,17.75
2023-01-19T23:30:09.467Z,12.75
2023-01-19T23:33:13.396Z,16.00
2023-01-19T23:36:17.963Z,34.25
2023-01-19T23:39:23.401Z,44.00
2023-01-19T23:42:26.778Z,41.75
2023-01-19T23:45:32.804Z,19.00
2023-01-19T23:48:37.203Z,17.75
2023-01-19T23:51:42.747Z,51.00
2023-01-19T23:54:47.255Z,64.25
2023-01-19T23:57:51.143Z,44.50
